Archival Weather

Tokyo Intl

Tokyo Intl, Japan (RJTT)

Report from: Friday, June 24, 2022 1:40 PM JST
Current time: Tuesday, August 16, 2022 9:05 AM JST

Current weather
Weather history
Weather forecast

Temperature30.0°C (86.0°F)
Heat index34.2°C (93.6°F)
Dew point23.0°C (73.4°F)
Winds 21 kts (10.8 m/s, 24.2 mph) South-Southwest (200°)
Wind gusts 31 kts (15.9 m/s, 35.7 mph)
Visibility6.2 mi. (10 km)
Clouds Ceiling: Broken clouds 0 ft. (0 m)
Few clouds 3,000 ft. (914 m)
Altimeter29.62 in.Hg (1003 mB)
Relative humidity66 %
Density altitude2,441 ft. (744 m)
Remarks Special weather observation
Flight conditions Low Instrument Meteorological Conditions
Raw dataSPJP31 KWBC 240454 SPECI RJTT 240440Z 20021G31KT 9999 FEW030 BKN/// 30/23 Q1003 RMK 1CU030 A2964
An error has occurred. This application may no longer respond until reloaded. Reload 🗙